createdAt,value
2022-09-16T00:01:40.752Z,73.37
2022-09-16T00:04:08.747Z,78.57
2022-09-16T00:06:36.703Z,73.07
2022-09-16T00:09:04.871Z,72.40
2022-09-16T00:11:34.795Z,74.90
2022-09-16T00:14:03.159Z,71.70
2022-09-16T00:16:31.406Z,74.50
2022-09-16T00:19:01.954Z,72.77
2022-09-16T00:21:30.596Z,74.53
2022-09-16T00:23:58.785Z,74.50
2022-09-16T00:26:26.959Z,74.20
2022-09-16T00:28:55.150Z,79.77
2022-09-16T00:31:23.314Z,74.60
2022-09-16T00:33:51.369Z,73.97
2022-09-16T00:36:21.183Z,72.50
2022-09-16T00:38:52.133Z,76.53
2022-09-16T00:41:21.373Z,76.37
2022-09-16T00:43:55.906Z,72.90
2022-09-16T00:46:28.004Z,73.27
2022-09-16T00:48:56.078Z,73.60
2022-09-16T00:51:26.032Z,77.73
2022-09-16T00:53:57.939Z,76.30
2022-09-16T00:56:27.386Z,75.03
2022-09-16T00:59:02.459Z,76.33
2022-09-16T01:01:30.972Z,79.17
2022-09-16T01:04:01.775Z,73.97
2022-09-16T01:06:32.256Z,71.97
2022-09-16T01:09:00.823Z,76.10
2022-09-16T01:11:29.402Z,77.70
2022-09-16T01:14:18.471Z,77.17
2022-09-16T01:16:50.547Z,76.80
2022-09-16T01:19:33.369Z,76.50
2022-09-16T01:22:11.576Z,75.07
2022-09-16T01:24:50.502Z,73.67
2022-09-16T01:27:40.644Z,75.07
2022-09-16T01:30:32.482Z,77.90
2022-09-16T01:33:05.044Z,75.90
2022-09-16T01:35:47.314Z,74.50
2022-09-16T01:38:31.009Z,79.40
2022-09-16T01:41:02.306Z,75.90
2022-09-16T01:43:39.263Z,74.43
2022-09-16T01:46:18.047Z,74.80
2022-09-16T01:48:53.844Z,75.60
2022-09-16T01:51:26.975Z,79.03
2022-09-16T01:54:03.732Z,76.97
2022-09-16T01:56:34.289Z,76.07
2022-09-16T01:59:06.437Z,76.27
2022-09-16T02:01:37.996Z,74.50
2022-09-16T02:04:09.882Z,76.80
2022-09-16T02:06:39.442Z,76.27
2022-09-16T02:09:10.746Z,74.67
2022-09-16T02:11:39.507Z,74.80
2022-09-16T02:14:10.539Z,76.00
2022-09-16T02:16:43.360Z,79.67
2022-09-16T02:19:14.220Z,75.50
2022-09-16T02:21:45.905Z,75.33
2022-09-16T02:24:17.565Z,76.10
2022-09-16T02:26:48.570Z,74.77
2022-09-16T02:29:19.198Z,71.47
2022-09-16T02:31:51.290Z,74.80
2022-09-16T02:34:48.871Z,73.43
2022-09-16T02:37:20.276Z,74.50
2022-09-16T02:39:51.250Z,75.57
2022-09-16T02:42:19.321Z,76.70
2022-09-16T02:44:47.864Z,74.47
2022-09-16T02:47:23.310Z,73.57
2022-09-16T02:49:54.776Z,75.37
2022-09-16T02:52:26.550Z,72.10
2022-09-16T02:54:57.908Z,74.47
2022-09-16T02:57:25.955Z,74.00
2022-09-16T02:59:54.762Z,74.37
2022-09-16T03:02:24.362Z,77.60
2022-09-16T03:04:52.478Z,76.90
2022-09-16T03:07:20.487Z,72.77
2022-09-16T03:09:49.291Z,75.17
2022-09-16T03:12:29.648Z,77.70
2022-09-16T03:15:11.623Z,73.37
2022-09-16T03:17:52.588Z,73.77
2022-09-16T03:20:24.580Z,74.10
2022-09-16T03:22:56.963Z,73.87
2022-09-16T03:25:34.455Z,72.93
2022-09-16T03:28:06.314Z,76.43
2022-09-16T03:30:37.233Z,76.93
2022-09-16T03:33:10.876Z,76.10
2022-09-16T03:35:41.950Z,73.80
2022-09-16T03:38:10.300Z,76.17
2022-09-16T03:40:38.739Z,77.07
2022-09-16T03:43:11.994Z,73.30
2022-09-16T03:45:42.722Z,77.67
2022-09-16T03:48:13.026Z,73.20
2022-09-16T03:50:41.762Z,75.60
2022-09-16T03:53:10.002Z,77.27
2022-09-16T03:55:38.081Z,75.40
2022-09-16T03:58:06.119Z,74.60
2022-09-16T04:00:34.185Z,79.20
2022-09-16T04:03:03.367Z,75.17
2022-09-16T04:05:32.811Z,73.27
2022-09-16T04:08:00.789Z,77.90
2022-09-16T04:10:28.792Z,76.43
2022-09-16T04:12:58.630Z,74.00
2022-09-16T04:15:26.752Z,77.10
2022-09-16T04:17:56.208Z,77.20
2022-09-16T04:20:24.876Z,75.40
2022-09-16T04:22:54.271Z,80.00
2022-09-16T04:25:22.330Z,74.20
2022-09-16T04:27:50.355Z,76.03
2022-09-16T04:30:18.815Z,76.17
2022-09-16T04:32:46.904Z,77.37
2022-09-16T04:35:44.560Z,78.20
2022-09-16T04:38:14.085Z,74.87
2022-09-16T04:40:42.092Z,74.87
2022-09-16T04:43:10.275Z,75.50
2022-09-16T04:45:38.313Z,75.67
2022-09-16T04:48:06.387Z,77.03
2022-09-16T04:50:34.389Z,75.90
2022-09-16T04:53:02.404Z,75.27
2022-09-16T04:55:32.379Z,76.00
2022-09-16T04:58:00.570Z,77.57
2022-09-16T05:00:28.547Z,76.30
2022-09-16T05:02:56.599Z,75.60
2022-09-16T05:05:24.606Z,75.80
2022-09-16T05:07:53.749Z,74.67
2022-09-16T05:10:21.726Z,77.83
2022-09-16T05:12:53.445Z,74.77
2022-09-16T05:15:21.761Z,74.27
2022-09-16T05:17:51.685Z,76.10
2022-09-16T05:20:20.410Z,79.37
2022-09-16T05:22:51.078Z,76.70
2022-09-16T05:25:19.244Z,74.83
2022-09-16T05:27:47.250Z,74.70
2022-09-16T05:30:17.409Z,79.60
2022-09-16T05:32:45.502Z,72.30
2022-09-16T05:35:13.803Z,75.07
2022-09-16T05:37:41.803Z,77.17
2022-09-16T05:40:10.403Z,74.20
2022-09-16T05:42:38.498Z,76.07
2022-09-16T05:45:07.820Z,80.30
2022-09-16T05:47:37.230Z,78.00
2022-09-16T05:50:05.841Z,77.63
2022-09-16T05:52:33.828Z,76.40
2022-09-16T05:55:01.828Z,75.70
2022-09-16T05:57:29.907Z,73.90
2022-09-16T05:59:59.427Z,81.37
2022-09-16T06:02:27.542Z,79.10
2022-09-16T06:04:57.054Z,74.87
2022-09-16T06:07:25.103Z,75.50
2022-09-16T06:09:53.171Z,74.17
2022-09-16T06:12:21.209Z,74.67
2022-09-16T06:14:49.305Z,75.47
2022-09-16T06:17:17.818Z,75.47
2022-09-16T06:19:46.184Z,73.37
2022-09-16T06:22:15.568Z,78.97
2022-09-16T06:24:43.567Z,75.17
2022-09-16T06:27:11.541Z,75.50
2022-09-16T06:29:39.617Z,77.80
2022-09-16T06:32:07.693Z,75.20
2022-09-16T06:34:35.701Z,75.87
2022-09-16T06:37:03.730Z,74.37
2022-09-16T06:39:33.107Z,76.60
2022-09-16T06:42:01.120Z,77.63
2022-09-16T06:44:41.477Z,75.93
2022-09-16T06:47:09.553Z,75.70
2022-09-16T06:49:37.542Z,77.60
2022-09-16T06:52:09.533Z,77.13
2022-09-16T06:54:38.975Z,74.50
2022-09-16T06:57:12.013Z,72.77
2022-09-16T06:59:40.412Z,72.47
2022-09-16T07:02:10.158Z,73.17
2022-09-16T07:04:38.230Z,77.37
2022-09-16T07:07:09.666Z,92.55
2022-09-16T07:09:39.936Z,81.70
2022-09-16T07:12:08.913Z,79.20
2022-09-16T07:14:37.072Z,76.97
2022-09-16T07:17:05.180Z,76.20
2022-09-16T07:19:33.291Z,76.20
2022-09-16T07:22:01.319Z,72.77
2022-09-16T07:24:29.358Z,75.67
2022-09-16T07:26:58.768Z,73.20
2022-09-16T07:29:27.674Z,73.90
2022-09-16T07:31:55.754Z,73.03
2022-09-16T07:34:23.803Z,73.37
2022-09-16T07:36:52.067Z,75.07
2022-09-16T07:39:21.234Z,73.90
2022-09-16T07:41:49.537Z,74.40
2022-09-16T07:44:20.060Z,74.67
2022-09-16T07:46:48.438Z,73.50
2022-09-16T07:49:17.197Z,72.90
2022-09-16T07:51:45.550Z,75.07
2022-09-16T07:54:15.006Z,77.07
2022-09-16T07:56:44.280Z,73.57
2022-09-16T07:59:17.721Z,75.50
2022-09-16T08:01:49.165Z,73.87
2022-09-16T08:04:18.358Z,72.23
2022-09-16T08:06:46.644Z,73.20
2022-09-16T08:09:38.717Z,75.07
2022-09-16T08:12:05.733Z,77.87
2022-09-16T08:14:33.927Z,73.80
2022-09-16T08:17:03.482Z,72.70
2022-09-16T08:19:31.592Z,73.63
2022-09-16T08:21:59.599Z,75.17
2022-09-16T08:24:27.735Z,71.97
2022-09-16T08:29:25.901Z,76.63
2022-09-16T08:31:54.068Z,73.80
2022-09-16T08:34:23.671Z,77.73
2022-09-16T08:36:51.776Z,72.23
2022-09-16T08:39:20.990Z,73.53
2022-09-16T08:42:06.621Z,75.00
2022-09-16T08:44:42.047Z,75.80
2022-09-16T08:47:16.605Z,73.80
2022-09-16T08:49:47.511Z,75.83
2022-09-16T08:52:20.162Z,71.90
2022-09-16T08:54:50.944Z,72.43
2022-09-16T08:57:23.945Z,75.27
2022-09-16T08:59:56.067Z,72.17
2022-09-16T09:02:30.309Z,72.67
2022-09-16T09:05:00.200Z,76.70
2022-09-16T09:07:35.120Z,69.00
2022-09-16T09:10:10.213Z,71.47
2022-09-16T09:12:42.370Z,69.20
2022-09-16T09:15:28.401Z,69.47
2022-09-16T09:18:06.107Z,68.10
2022-09-16T09:20:44.414Z,70.37
2022-09-16T09:23:25.696Z,68.57
2022-09-16T09:25:59.416Z,68.17
2022-09-16T09:28:56.698Z,68.87
2022-09-16T09:31:30.566Z,67.80
2022-09-16T09:34:03.928Z,68.93
2022-09-16T09:36:46.789Z,71.20
2022-09-16T09:39:44.198Z,69.43
2022-09-16T09:42:17.792Z,68.80
2022-09-16T09:44:51.884Z,67.00
2022-09-16T09:47:24.034Z,64.80
2022-09-16T09:49:54.337Z,64.90
2022-09-16T09:52:27.855Z,64.20
2022-09-16T09:54:56.988Z,65.67
2022-09-16T09:57:30.483Z,66.37
2022-09-16T10:00:02.503Z,65.97
2022-09-16T10:02:44.948Z,65.50
2022-09-16T10:05:22.202Z,65.70
2022-09-16T10:07:53.794Z,66.07
2022-09-16T10:10:23.975Z,67.40
2022-09-16T10:12:52.871Z,66.67
2022-09-16T10:15:23.278Z,72.10
2022-09-16T10:17:52.254Z,65.67
2022-09-16T10:20:28.426Z,67.27
2022-09-16T10:23:00.236Z,67.97
2022-09-16T10:25:29.192Z,66.97
2022-09-16T10:27:58.384Z,72.07
2022-09-16T10:30:34.202Z,69.97
2022-09-16T10:33:04.948Z,70.10
2022-09-16T10:35:34.642Z,64.80
2022-09-16T10:38:07.722Z,68.60
2022-09-16T10:40:35.742Z,64.17
2022-09-16T10:43:05.509Z,66.17
2022-09-16T10:45:36.820Z,64.40
2022-09-16T10:48:08.802Z,65.50
2022-09-16T10:50:36.832Z,65.80
2022-09-16T10:53:23.184Z,66.47
2022-09-16T10:55:59.058Z,66.43
2022-09-16T10:58:27.193Z,70.17
2022-09-16T11:01:03.995Z,66.27
2022-09-16T11:03:44.693Z,67.57
2022-09-16T11:06:22.901Z,63.70
2022-09-16T11:09:00.016Z,62.97
2022-09-16T11:11:42.391Z,64.40
2022-09-16T11:14:17.532Z,64.20
2022-09-16T11:16:55.819Z,63.60
2022-09-16T11:19:28.628Z,63.47
2022-09-16T11:22:08.196Z,65.97
2022-09-16T11:24:56.410Z,65.40
2022-09-16T11:27:35.444Z,64.20
2022-09-16T11:30:10.694Z,64.63
2022-09-16T11:33:06.190Z,64.33
2022-09-16T11:35:59.476Z,67.47
2022-09-16T11:38:42.291Z,64.00
2022-09-16T11:41:20.778Z,62.70
2022-09-16T11:44:01.105Z,65.20
2022-09-16T11:46:33.618Z,64.80
2022-09-16T11:49:11.491Z,66.83
2022-09-16T11:51:55.871Z,65.17
2022-09-16T11:54:40.466Z,64.87
2022-09-16T11:57:15.150Z,68.40
2022-09-16T11:59:48.478Z,68.67
2022-09-16T12:02:26.657Z,66.10
2022-09-16T12:04:59.234Z,66.30
2022-09-16T12:07:31.292Z,66.60
2022-09-16T12:10:02.111Z,70.27
2022-09-16T12:12:35.254Z,69.53
2022-09-16T12:15:06.326Z,67.27
2022-09-16T12:17:37.014Z,70.30
2022-09-16T12:20:10.793Z,69.20
2022-09-16T12:22:43.480Z,68.67
2022-09-16T12:25:14.915Z,69.77
2022-09-16T12:27:47.778Z,70.17
2022-09-16T12:30:18.829Z,70.90
2022-09-16T12:32:56.507Z,75.93
2022-09-16T12:35:28.766Z,73.77
2022-09-16T12:37:57.626Z,74.73
2022-09-16T12:40:28.139Z,73.50
2022-09-16T12:43:24.995Z,69.23
2022-09-16T12:46:13.665Z,70.13
2022-09-16T12:49:01.967Z,67.93
2022-09-16T12:51:56.639Z,68.30
2022-09-16T12:55:07.124Z,68.27
2022-09-16T12:57:45.898Z,68.50
2022-09-16T13:00:20.745Z,67.10
2022-09-16T13:02:51.975Z,70.77
2022-09-16T13:05:26.292Z,66.00
2022-09-16T13:07:58.341Z,71.20
2022-09-16T13:10:53.963Z,65.67
2022-09-16T13:13:22.105Z,66.23
2022-09-16T13:15:57.907Z,70.73
2022-09-16T13:18:39.751Z,65.20
2022-09-16T13:21:13.366Z,66.47
2022-09-16T13:23:44.377Z,66.17
2022-09-16T13:26:12.485Z,65.67
2022-09-16T13:28:43.363Z,66.40
2022-09-16T13:31:19.847Z,67.67
2022-09-16T13:33:49.777Z,67.00
2022-09-16T13:36:31.873Z,65.97
2022-09-16T13:39:01.884Z,66.40
2022-09-16T13:41:35.791Z,65.50
2022-09-16T13:44:05.505Z,65.00
2022-09-16T13:46:36.781Z,66.07
2022-09-16T13:49:13.252Z,66.77
2022-09-16T13:51:43.198Z,67.03
2022-09-16T13:54:28.058Z,65.80
2022-09-16T13:57:14.939Z,66.50
2022-09-16T14:02:37.856Z,65.40
2022-09-16T14:05:31.063Z,66.17
2022-09-16T14:08:04.908Z,68.93
2022-09-16T14:10:38.556Z,65.30
2022-09-16T14:13:12.450Z,64.43
2022-09-16T14:15:43.256Z,68.77
2022-09-16T14:18:15.378Z,65.70
2022-09-16T14:20:54.101Z,66.13
2022-09-16T14:23:25.242Z,65.70
2022-09-16T14:25:55.563Z,65.30
2022-09-16T14:28:25.487Z,67.00
2022-09-16T14:30:56.021Z,66.13
2022-09-16T14:33:28.696Z,65.23
2022-09-16T14:35:57.383Z,64.27
2022-09-16T14:38:45.420Z,66.60
2022-09-16T14:41:21.078Z,67.70
2022-09-16T14:43:49.177Z,65.90
2022-09-16T14:46:18.441Z,63.80
2022-09-16T14:48:48.055Z,65.20
2022-09-16T14:51:21.349Z,64.03
2022-09-16T14:54:11.807Z,66.30
2022-09-16T14:56:40.575Z,64.50
2022-09-16T14:59:12.419Z,65.90
2022-09-16T15:01:40.917Z,66.17
2022-09-16T15:04:18.558Z,79.05
2022-09-16T15:06:52.106Z,65.77
2022-09-16T15:09:24.512Z,64.47
2022-09-16T15:11:55.431Z,66.90
2022-09-16T15:14:23.937Z,65.47
2022-09-16T15:16:54.498Z,64.60
2022-09-16T15:19:26.384Z,65.07
2022-09-16T15:21:54.658Z,64.17
2022-09-16T15:24:24.910Z,63.97
2022-09-16T15:26:53.809Z,63.90
2022-09-16T15:29:32.042Z,65.50
2022-09-16T15:32:18.213Z,63.60
2022-09-16T15:34:48.120Z,64.97
2022-09-16T15:37:31.276Z,64.03
2022-09-16T15:40:10.651Z,65.83
2022-09-16T15:42:39.019Z,66.27
2022-09-16T15:45:17.323Z,64.17
2022-09-16T15:47:58.069Z,65.80
2022-09-16T15:50:29.680Z,65.07
2022-09-16T15:53:01.194Z,64.90
2022-09-16T15:55:36.491Z,65.50
2022-09-16T15:58:07.941Z,65.00
2022-09-16T16:01:00.868Z,65.20
2022-09-16T16:03:31.650Z,67.07
2022-09-16T16:06:04.906Z,66.90
2022-09-16T16:08:45.859Z,68.87
2022-09-16T16:11:15.566Z,65.97
2022-09-16T16:13:44.280Z,64.40
2022-09-16T16:16:14.394Z,68.60
2022-09-16T16:18:43.626Z,63.87
2022-09-16T16:21:14.565Z,67.50
2022-09-16T16:23:42.682Z,68.90
2022-09-16T16:26:11.619Z,66.53
2022-09-16T16:28:39.659Z,68.30
2022-09-16T16:31:15.883Z,63.40
2022-09-16T16:33:45.703Z,77.95
2022-09-16T16:36:17.019Z,65.87
2022-09-16T16:38:46.441Z,65.87
2022-09-16T16:41:16.876Z,66.23
2022-09-16T16:43:45.164Z,66.20
2022-09-16T16:46:13.515Z,64.50
2022-09-16T16:48:41.726Z,65.87
2022-09-16T16:51:11.839Z,66.03
2022-09-16T16:53:41.369Z,64.23
2022-09-16T16:56:14.855Z,64.37
2022-09-16T16:58:44.053Z,65.67
2022-09-16T17:01:13.982Z,65.87
2022-09-16T17:03:44.867Z,70.70
2022-09-16T17:06:14.235Z,67.60
2022-09-16T17:08:43.764Z,66.43
2022-09-16T17:11:13.245Z,64.50
2022-09-16T17:13:43.144Z,64.53
2022-09-16T17:16:12.476Z,66.00
2022-09-16T17:18:42.996Z,66.10
2022-09-16T17:21:12.521Z,65.10
2022-09-16T17:23:40.979Z,65.27
2022-09-16T17:26:11.460Z,68.00
2022-09-16T17:28:40.955Z,65.60
2022-09-16T17:31:12.432Z,65.00
2022-09-16T17:33:43.833Z,66.07
2022-09-16T17:36:14.089Z,69.63
2022-09-16T17:38:42.301Z,64.97
2022-09-16T17:41:13.093Z,65.10
2022-09-16T17:43:44.494Z,65.00
2022-09-16T17:46:15.946Z,66.60
2022-09-16T17:48:44.242Z,64.90
2022-09-16T17:51:12.527Z,66.80
2022-09-16T17:53:41.223Z,66.00
2022-09-16T17:56:12.921Z,67.03
2022-09-16T17:58:42.543Z,65.77
2022-09-16T18:01:12.218Z,77.03
2022-09-16T18:03:41.606Z,67.33
2022-09-16T18:06:11.308Z,65.67
2022-09-16T18:08:40.618Z,67.03
2022-09-16T18:11:09.712Z,65.53
2022-09-16T18:13:39.730Z,65.17
2022-09-16T18:16:11.281Z,66.80
2022-09-16T18:18:41.052Z,64.87
2022-09-16T18:21:10.604Z,70.67
2022-09-16T18:23:38.631Z,65.37
2022-09-16T18:26:07.793Z,67.50
2022-09-16T18:28:58.005Z,72.80
2022-09-16T18:31:26.523Z,68.37
2022-09-16T18:33:55.382Z,65.30
2022-09-16T18:36:25.518Z,68.10
2022-09-16T18:38:54.266Z,66.30
2022-09-16T18:41:24.297Z,66.30
2022-09-16T18:43:54.460Z,67.40
2022-09-16T18:46:26.662Z,69.37
2022-09-16T18:48:56.942Z,66.43
2022-09-16T18:51:26.707Z,66.47
2022-09-16T18:53:57.884Z,66.20
2022-09-16T18:56:26.763Z,64.77
2022-09-16T18:59:20.023Z,65.87
2022-09-16T19:01:48.644Z,65.77
2022-09-16T19:04:19.954Z,66.40
2022-09-16T19:06:49.854Z,67.60
2022-09-16T19:09:20.181Z,65.73
2022-09-16T19:11:48.316Z,68.67
2022-09-16T19:14:16.682Z,65.90
2022-09-16T19:16:46.238Z,65.47
2022-09-16T19:19:15.438Z,67.57
2022-09-16T19:21:45.284Z,65.90
2022-09-16T19:24:15.023Z,65.37
2022-09-16T19:26:44.054Z,67.60
2022-09-16T19:29:13.241Z,67.33
2022-09-16T19:31:42.415Z,67.13
2022-09-16T19:34:11.070Z,68.57
2022-09-16T19:36:39.853Z,65.67
2022-09-16T19:39:10.077Z,66.57
2022-09-16T19:41:39.524Z,66.70
2022-09-16T19:44:10.791Z,67.60
2022-09-16T19:46:40.195Z,67.77
2022-09-16T19:49:08.762Z,66.47
2022-09-16T19:51:37.758Z,67.87
2022-09-16T19:54:06.143Z,66.47
2022-09-16T19:56:35.546Z,68.50
2022-09-16T19:59:03.618Z,70.77
2022-09-16T20:01:33.437Z,64.87
2022-09-16T20:04:03.670Z,69.87
2022-09-16T20:06:36.136Z,66.97
2022-09-16T20:09:06.717Z,66.77
2022-09-16T20:11:38.077Z,67.03
2022-09-16T20:14:08.419Z,67.67
2022-09-16T20:16:38.901Z,67.40
2022-09-16T20:19:08.854Z,66.13
2022-09-16T20:21:37.940Z,70.63
2022-09-16T20:24:07.882Z,68.47
2022-09-16T20:26:37.511Z,67.43
2022-09-16T20:29:05.659Z,66.60
2022-09-16T20:31:35.440Z,66.87
2022-09-16T20:34:03.816Z,67.20
2022-09-16T20:36:32.971Z,66.40
2022-09-16T20:39:01.269Z,68.00
2022-09-16T20:41:30.971Z,70.73
2022-09-16T20:44:00.825Z,69.90
2022-09-16T20:46:31.144Z,67.93
2022-09-16T20:49:00.729Z,69.27
2022-09-16T20:51:31.253Z,67.60
2022-09-16T20:54:06.314Z,69.10
2022-09-16T20:56:38.282Z,69.57
2022-09-16T20:59:08.736Z,70.47
2022-09-16T21:01:38.090Z,71.27
2022-09-16T21:04:07.329Z,69.70
2022-09-16T21:06:36.410Z,72.03
2022-09-16T21:09:06.222Z,71.87
2022-09-16T21:11:35.372Z,70.87
2022-09-16T21:14:06.397Z,69.97
2022-09-16T21:16:37.315Z,70.97
2022-09-16T21:19:09.297Z,69.93
2022-09-16T21:21:39.360Z,70.50
2022-09-16T21:24:08.595Z,72.67
2022-09-16T21:26:38.311Z,68.77
2022-09-16T21:29:09.902Z,68.37
2022-09-16T21:31:40.961Z,68.27
2022-09-16T21:34:12.910Z,69.33
2022-09-16T21:36:40.996Z,72.07
2022-09-16T21:39:09.209Z,69.90
2022-09-16T21:41:37.535Z,70.47
2022-09-16T21:44:05.833Z,68.47
2022-09-16T21:46:36.968Z,70.37
2022-09-16T21:49:06.632Z,69.97
2022-09-16T21:51:38.293Z,70.77
2022-09-16T21:54:07.483Z,71.73
2022-09-16T21:56:37.763Z,70.40
2022-09-16T21:59:06.161Z,69.60
2022-09-16T22:01:34.396Z,73.77
2022-09-16T22:04:04.714Z,73.30
2022-09-16T22:06:34.911Z,71.10
2022-09-16T22:09:04.394Z,70.47
2022-09-16T22:11:33.507Z,71.00
2022-09-16T22:14:02.399Z,68.80
2022-09-16T22:16:31.652Z,68.27
2022-09-16T22:19:01.727Z,68.87
2022-09-16T22:21:33.228Z,67.77
2022-09-16T22:24:03.217Z,68.10
2022-09-16T22:26:31.931Z,67.97
2022-09-16T22:29:00.704Z,66.13
2022-09-16T22:31:30.227Z,66.67
2022-09-16T22:34:00.679Z,65.77
2022-09-16T22:36:30.293Z,70.57
2022-09-16T22:39:00.770Z,67.20
2022-09-16T22:41:30.459Z,67.00
2022-09-16T22:43:58.726Z,67.90
2022-09-16T22:46:29.084Z,70.07
2022-09-16T22:48:58.376Z,65.10
2022-09-16T22:51:26.928Z,67.47
2022-09-16T22:53:55.193Z,71.37
2022-09-16T22:56:25.091Z,68.73
2022-09-16T22:58:55.282Z,70.50
2022-09-16T23:01:25.544Z,70.20
2022-09-16T23:03:55.729Z,64.90
2022-09-16T23:06:24.823Z,66.03
2022-09-16T23:08:53.310Z,67.40
2022-09-16T23:11:23.691Z,68.07
2022-09-16T23:13:52.868Z,69.13
2022-09-16T23:16:24.414Z,66.53
2022-09-16T23:18:52.438Z,72.90
2022-09-16T23:21:22.293Z,70.30
2022-09-16T23:23:52.131Z,66.80
2022-09-16T23:26:22.041Z,65.77
2022-09-16T23:28:52.644Z,66.47
2022-09-16T23:31:23.650Z,67.67
2022-09-16T23:33:51.809Z,69.47
2022-09-16T23:36:20.261Z,69.50
2022-09-16T23:38:49.057Z,67.07
2022-09-16T23:41:19.850Z,68.47
2022-09-16T23:43:48.930Z,70.90
2022-09-16T23:46:19.203Z,69.83
2022-09-16T23:48:51.004Z,66.77
2022-09-16T23:51:22.611Z,68.07
2022-09-16T23:53:54.192Z,67.17
2022-09-16T23:56:22.308Z,66.93
2022-09-16T23:58:50.949Z,72.20
